Time;durP1;ratioP1;P1;durP2;ratioP2;P2;SDS_P1;SDS_P2;PMS_P1;PMS_P2;Temp;Humidity;BMP_temperature;BMP_pressure;BME280_temperature;BME280_humidity;BME280_pressure;Samples;Min_cycle;Max_cycle;Signal;HPM_P1;HPM_P2
2023/03/14 00:02:21;;;;;;;2.00;1.33;;;;;;;10.86;92.76;98512.91;6004884;28;20046;-71
2023/03/14 00:05:16;;;;;;;2.50;1.13;;;;;;;10.99;93.05;98533.31;6005374;28;20054;-71
2023/03/14 00:08:12;;;;;;;2.17;1.07;;;;;;;10.95;92.87;98508.22;6005304;28;20031;-72
2023/03/14 00:11:13;;;;;;;2.03;1.00;;;;;;;10.86;93.54;98485.56;6005421;28;20258;-71
2023/03/14 00:14:08;;;;;;;6.07;1.13;;;;;;;10.85;93.92;98457.41;6004159;28;20038;-71
2023/03/14 00:17:03;;;;;;;2.20;1.30;;;;;;;10.87;94.85;98458.03;6005204;28;20131;-71
2023/03/14 00:20:07;;;;;;;2.00;1.10;;;;;;;10.82;95.55;98434.78;6004988;28;20270;-71
2023/03/14 00:23:03;;;;;;;3.30;1.10;;;;;;;10.88;95.39;98443.75;6004620;28;20457;-71
2023/03/14 00:26:04;;;;;;;2.57;1.20;;;;;;;10.90;96.35;98447.03;6004839;28;20039;-71
2023/03/14 00:28:59;;;;;;;1.30;0.90;;;;;;;10.84;95.79;98423.97;6003374;28;20046;-70
2023/03/14 00:31:54;;;;;;;1.97;1.00;;;;;;;10.85;96.11;98428.25;6003023;28;20042;-72
2023/03/14 00:34:49;;;;;;;3.33;1.20;;;;;;;10.86;96.36;98448.44;6004274;28;20034;-72
2023/03/14 00:37:45;;;;;;;2.63;1.33;;;;;;;10.71;97.10;98461.88;6004685;28;20497;-71
2023/03/14 00:40:40;;;;;;;5.53;1.50;;;;;;;10.85;96.12;98473.31;6003701;28;20038;-71
2023/03/14 00:43:36;;;;;;;3.37;1.30;;;;;;;10.75;96.30;98463.94;6003614;28;20038;-70
2023/03/14 00:46:31;;;;;;;2.15;1.15;;;;;;;10.67;96.66;98456.19;6004380;28;20290;-71
2023/03/14 00:49:26;;;;;;;7.40;1.30;;;;;;;10.55;96.47;98449.84;6004102;28;20115;-72
2023/03/14 00:52:21;;;;;;;4.40;1.00;;;;;;;10.74;95.83;98462.31;6004178;28;20269;-71
2023/03/14 00:55:17;;;;;;;3.57;1.17;;;;;;;10.65;96.21;98497.97;6004138;28;20072;-71
2023/03/14 00:58:14;;;;;;;2.97;1.17;;;;;;;10.84;95.84;98514.13;6004171;28;20442;-72
2023/03/14 01:01:13;;;;;;;3.75;1.23;;;;;;;10.80;95.53;98507.56;6004017;28;20042;-72
2023/03/14 01:04:08;;;;;;;1.83;0.90;;;;;;;10.74;95.48;98488.00;6000377;28;20483;-71
2023/03/14 01:07:03;;;;;;;2.30;0.83;;;;;;;10.83;94.92;98480.66;6004193;28;20031;-71
2023/03/14 01:09:59;;;;;;;2.57;0.80;;;;;;;10.71;94.53;98453.94;6003858;28;20062;-72
2023/03/14 01:12:54;;;;;;;3.60;1.50;;;;;;;10.69;94.65;98453.31;6002992;28;20110;-71
2023/03/14 01:15:50;;;;;;;3.70;1.30;;;;;;;10.72;94.55;98453.75;6003502;28;20034;-71
2023/03/14 01:18:45;;;;;;;3.90;1.20;;;;;;;10.76;93.46;98430.31;6003753;28;20042;-72
2023/03/14 01:21:41;;;;;;;3.40;0.93;;;;;;;10.74;92.84;98430.50;6002320;28;20487;-70
2023/03/14 01:24:37;;;;;;;2.20;1.10;;;;;;;10.75;92.28;98426.84;6002463;28;20255;-71
2023/03/14 01:27:33;;;;;;;3.50;1.10;;;;;;;10.79;91.89;98432.53;6002408;28;20054;-71
2023/03/14 01:30:28;;;;;;;2.60;0.90;;;;;;;10.76;91.41;98449.66;6003487;28;20478;-71
2023/03/14 01:33:23;;;;;;;1.87;0.80;;;;;;;10.81;91.90;98453.56;6002612;28;20038;-71
2023/03/14 01:36:19;;;;;;;5.13;1.33;;;;;;;10.75;91.72;98429.47;6002835;28;20035;-71
2023/03/14 01:39:14;;;;;;;4.32;1.08;;;;;;;10.68;91.93;98430.50;6003199;28;20061;-70
2023/03/14 01:42:09;;;;;;;2.17;1.00;;;;;;;10.59;92.10;98413.16;6002512;28;20047;-71
2023/03/14 01:45:05;;;;;;;5.10;1.60;;;;;;;10.58;92.35;98412.34;6003080;28;20270;-70
2023/03/14 01:48:00;;;;;;;3.00;0.90;;;;;;;10.55;92.35;98433.13;6002879;28;20027;-70
2023/03/14 01:50:56;;;;;;;9.00;1.27;;;;;;;10.44;92.78;98423.94;6002713;28;20035;-71
2023/03/14 01:53:54;;;;;;;3.08;1.33;;;;;;;10.47;92.56;98442.09;6001275;28;20035;-71
2023/03/14 01:56:54;;;;;;;2.95;1.35;;;;;;;10.54;92.34;98424.38;6003086;28;20026;-71
2023/03/14 02:00:10;;;;;;;1.98;1.10;;;;;;;10.51;92.56;98413.34;6002614;28;20070;-71
2023/03/14 02:03:10;;;;;;;2.35;1.13;;;;;;;10.53;92.84;98428.03;6000725;28;20039;-71
2023/03/14 02:06:07;;;;;;;2.05;1.10;;;;;;;10.48;92.86;98425.19;6002795;28;20031;-72
2023/03/14 02:09:03;;;;;;;4.18;1.20;;;;;;;10.43;93.19;98416.19;6001456;28;20035;-71
2023/03/14 02:11:59;;;;;;;3.90;1.23;;;;;;;10.36;93.24;98399.47;6002334;28;20466;-71
2023/03/14 02:14:54;;;;;;;4.40;1.10;;;;;;;10.31;93.20;98381.53;6001270;28;20027;-71
2023/03/14 02:17:49;;;;;;;2.70;1.10;;;;;;;10.28;93.57;98387.22;6002635;28;20037;-72
2023/03/14 02:20:53;;;;;;;2.47;2.27;;;;;;;10.39;93.32;98404.34;6002481;28;20065;-70
2023/03/14 02:23:59;;;;;;;3.78;1.23;;;;;;;10.42;92.77;98409.25;6002148;28;20035;-71
2023/03/14 02:27:02;;;;;;;3.08;0.90;;;;;;;10.34;92.64;98402.31;6002196;28;20034;-70
2023/03/14 02:30:00;;;;;;;3.60;1.10;;;;;;;10.40;92.46;98417.41;6002630;28;20038;-71
2023/03/14 02:32:59;;;;;;;3.53;1.00;;;;;;;10.36;92.77;98426.78;6001766;28;20037;-71
2023/03/14 02:36:04;;;;;;;4.80;1.30;;;;;;;10.21;92.47;98414.72;6001094;28;20467;-72
2023/03/14 02:39:08;;;;;;;3.22;2.08;;;;;;;10.24;93.00;98428.38;5991015;28;20082;-70
2023/03/14 02:42:03;;;;;;;4.03;1.00;;;;;;;10.25;92.50;98414.13;6000088;28;20097;-71
2023/03/14 02:45:08;;;;;;;1.42;0.80;;;;;;;10.32;91.82;98420.25;6002597;28;20050;-72
2023/03/14 02:48:13;;;;;;;3.00;0.77;;;;;;;10.28;90.99;98402.28;6002190;28;20073;-71
2023/03/14 02:51:09;;;;;;;3.70;0.90;;;;;;;10.23;91.50;98415.34;6002431;28;20474;-71
2023/03/14 02:54:04;;;;;;;2.22;0.98;;;;;;;10.16;91.81;98399.44;6001100;28;20050;-72
2023/03/14 02:56:59;;;;;;;3.33;1.00;;;;;;;10.11;91.06;98392.03;6002217;28;20117;-70
2023/03/14 02:59:59;;;;;;;2.10;0.70;;;;;;;10.15;91.13;98397.78;6002011;28;20037;-73
2023/03/14 03:02:54;;;;;;;1.95;0.95;;;;;;;10.10;90.68;98397.56;6001394;28;20035;-70
2023/03/14 03:05:51;;;;;;;3.57;1.00;;;;;;;10.05;90.69;98376.16;6006910;28;20711;-71
2023/03/14 03:08:46;;;;;;;1.98;0.90;;;;;;;10.08;90.46;98378.41;6006499;28;20094;-71
2023/03/14 03:11:42;;;;;;;3.87;1.00;;;;;;;9.98;90.13;98354.94;6006573;28;20034;-70
2023/03/14 03:14:37;;;;;;;4.53;0.93;;;;;;;9.98;90.37;98377.94;6005233;28;20027;-70
2023/03/14 03:17:32;;;;;;;2.80;1.13;;;;;;;10.05;89.52;98363.75;6005082;28;20154;-71
2023/03/14 03:20:28;;;;;;;0.90;0.65;;;;;;;9.98;89.33;98348.84;6006041;28;20274;-71
2023/03/14 03:23:23;;;;;;;2.93;0.90;;;;;;;10.04;88.94;98354.16;6005559;28;20153;-71
2023/03/14 03:26:18;;;;;;;2.70;1.00;;;;;;;10.06;88.47;98356.59;6006351;28;20358;-71
2023/03/14 03:29:14;;;;;;;1.60;0.80;;;;;;;10.08;89.04;98354.56;6006224;28;20061;-70
2023/03/14 03:32:09;;;;;;;4.65;1.17;;;;;;;10.06;88.17;98346.00;6005073;28;20758;-70
2023/03/14 03:35:05;;;;;;;4.97;1.07;;;;;;;10.04;87.34;98332.97;6006151;28;20061;-70
2023/03/14 03:38:00;;;;;;;1.70;0.70;;;;;;;10.00;87.54;98338.88;6005764;28;20034;-70
2023/03/14 03:40:55;;;;;;;2.35;0.63;;;;;;;10.03;86.74;98325.22;6006039;28;20099;-70
2023/03/14 03:43:51;;;;;;;5.37;0.80;;;;;;;10.11;86.42;98339.09;6005404;28;20700;-71
2023/03/14 03:46:46;;;;;;;3.67;1.02;;;;;;;10.03;86.48;98322.56;6005349;28;20042;-70
2023/03/14 03:49:42;;;;;;;4.77;0.90;;;;;;;10.16;85.91;98338.53;6018230;28;20581;-70
2023/03/14 03:52:37;;;;;;;3.08;0.90;;;;;;;10.13;85.75;98330.97;6004382;28;20112;-71
2023/03/14 03:55:32;;;;;;;2.87;0.77;;;;;;;10.07;86.24;98327.28;6005697;28;20035;-71
2023/03/14 03:58:27;;;;;;;2.27;0.70;;;;;;;10.07;86.62;98342.34;6005636;28;20033;-70
2023/03/14 04:01:23;;;;;;;1.63;0.77;;;;;;;10.04;86.64;98334.81;6005073;28;20466;-71
2023/03/14 04:04:18;;;;;;;1.27;0.50;;;;;;;10.06;86.65;98335.41;6004474;28;20613;-71
2023/03/14 04:07:14;;;;;;;3.87;0.90;;;;;;;9.87;86.33;98302.59;6005155;28;20081;-71
2023/03/14 04:10:10;;;;;;;1.65;0.70;;;;;;;10.20;85.98;98323.84;6005327;28;20322;-70
2023/03/14 04:13:05;;;;;;;3.00;0.60;;;;;;;10.22;85.81;98332.41;6003934;28;20463;-71
2023/03/14 04:16:00;;;;;;;2.87;0.63;;;;;;;10.30;85.76;98340.16;6003815;28;20039;-70
2023/03/14 04:18:56;;;;;;;2.35;0.88;;;;;;;10.10;88.12;98345.41;6005268;28;20038;-71
2023/03/14 04:21:51;;;;;;;4.17;0.87;;;;;;;9.99;89.28;98343.34;6001454;28;20390;-70
2023/03/14 04:24:46;;;;;;;4.10;0.80;;;;;;;9.92;91.84;98387.50;6005244;28;20045;-69
2023/03/14 04:27:42;;;;;;;2.17;0.70;;;;;;;9.70;93.46;98371.97;6005014;28;20734;-70
2023/03/14 04:30:37;;;;;;;7.37;1.00;;;;;;;9.52;95.68;98381.25;6004704;28;20039;-70
2023/03/14 04:33:32;;;;;;;2.60;0.97;;;;;;;9.36;98.08;98384.22;6003750;28;20034;-70
2023/03/14 04:36:27;;;;;;;1.30;0.33;;;;;;;9.04;99.61;98366.34;6004681;28;20414;-70
2023/03/14 04:39:23;;;;;;;0.53;0.37;;;;;;;9.03;99.42;98364.72;6004824;28;20042;-70
2023/03/14 04:42:18;;;;;;;2.23;0.50;;;;;;;8.86;97.77;98331.66;6004041;28;20062;-71
2023/03/14 04:45:13;;;;;;;3.33;0.47;;;;;;;8.79;95.88;98334.28;6004597;28;20126;-71
2023/03/14 04:48:09;;;;;;;1.80;0.43;;;;;;;8.78;94.27;98327.34;6004519;28;20290;-71
2023/03/14 04:51:04;;;;;;;0.47;0.20;;;;;;;8.83;93.55;98326.78;6004386;28;20285;-71
2023/03/14 04:54:00;;;;;;;0.75;0.17;;;;;;;8.62;93.63;98310.97;6003741;28;20034;-71
2023/03/14 04:56:55;;;;;;;1.70;0.45;;;;;;;8.77;93.05;98328.38;6004168;28;20058;-71
2023/03/14 04:59:50;;;;;;;2.53;0.20;;;;;;;8.74;93.25;98330.56;6004180;28;20391;-71
2023/03/14 05:02:46;;;;;;;1.60;0.30;;;;;;;8.58;94.18;98312.38;6003003;28;20026;-71
2023/03/14 05:05:41;;;;;;;0.70;0.20;;;;;;;8.51;94.71;98311.50;6003812;28;20045;-70
2023/03/14 05:08:36;;;;;;;0.23;0.20;;;;;;;8.42;95.41;98307.38;6002407;28;20037;-72
2023/03/14 05:11:32;;;;;;;2.03;0.30;;;;;;;8.23;95.45;98266.59;6002643;28;20058;-71
2023/03/14 05:14:27;;;;;;;1.52;0.30;;;;;;;8.55;95.19;98316.22;6003402;28;20270;-70
2023/03/14 05:17:23;;;;;;;0.90;0.30;;;;;;;8.54;94.95;98306.66;6003908;28;20069;-70
2023/03/14 05:20:18;;;;;;;1.70;0.40;;;;;;;8.65;94.62;98313.22;6003649;28;20045;-70
2023/03/14 05:23:13;;;;;;;2.00;0.57;;;;;;;8.60;94.22;98313.00;6003185;28;20495;-71
2023/03/14 05:26:09;;;;;;;0.67;0.40;;;;;;;8.72;93.75;98319.38;6003095;28;20266;-71
2023/03/14 05:29:04;;;;;;;3.60;0.50;;;;;;;8.63;93.96;98309.97;6003726;28;20042;-70
2023/03/14 05:31:59;;;;;;;1.10;0.40;;;;;;;8.72;94.10;98314.09;6000934;28;20066;-71
2023/03/14 05:34:58;;;;;;;1.97;0.60;;;;;;;8.71;93.82;98305.34;6002371;28;20038;-71
2023/03/14 05:37:53;;;;;;;3.17;0.80;;;;;;;8.81;93.56;98305.81;6003098;28;20032;-71
2023/03/14 05:40:48;;;;;;;2.97;0.50;;;;;;;8.87;93.61;98301.59;6003211;28;20529;-71
2023/03/14 05:43:43;;;;;;;3.03;0.90;;;;;;;8.85;93.56;98299.16;6001829;28;20038;-70
2023/03/14 05:46:39;;;;;;;2.90;0.60;;;;;;;8.84;93.44;98300.16;6003393;28;20283;-70
2023/03/14 05:49:34;;;;;;;2.13;0.50;;;;;;;8.80;94.02;98313.94;6003133;28;20042;-71
2023/03/14 05:52:29;;;;;;;4.47;0.63;;;;;;;8.65;94.25;98310.59;6002407;28;20031;-71
2023/03/14 05:55:25;;;;;;;4.00;1.10;;;;;;;8.60;94.93;98310.34;6001199;28;20042;-70
2023/03/14 05:58:20;;;;;;;3.90;0.88;;;;;;;8.62;95.24;98332.09;6003201;28;20042;-70
2023/03/14 06:01:15;;;;;;;4.83;0.97;;;;;;;8.64;95.27;98324.81;6000382;28;20031;-70
2023/03/14 06:04:11;;;;;;;1.97;0.60;;;;;;;8.52;95.19;98306.03;6000588;28;20270;-71
2023/03/14 06:07:06;;;;;;;2.07;0.60;;;;;;;8.59;94.85;98304.25;6002197;28;20634;-71
2023/03/14 06:10:01;;;;;;;4.60;0.70;;;;;;;8.77;95.10;98314.34;6002750;28;20502;-71
2023/03/14 06:12:57;;;;;;;3.63;0.63;;;;;;;8.79;94.21;98320.25;6000080;28;20026;-71
2023/03/14 06:15:52;;;;;;;3.17;0.80;;;;;;;8.93;93.92;98332.53;6001960;28;20034;-72
2023/03/14 06:18:48;;;;;;;2.90;0.60;;;;;;;8.87;93.43;98320.09;6001699;28;20097;-71
2023/03/14 06:21:44;;;;;;;3.40;0.75;;;;;;;8.96;93.08;98311.00;6002195;28;20437;-71
2023/03/14 06:24:39;;;;;;;0.93;0.40;;;;;;;9.12;92.55;98315.97;6001474;28;20055;-70
2023/03/14 06:27:34;;;;;;;3.07;0.50;;;;;;;9.20;91.93;98322.91;6002249;28;20027;-72
2023/03/14 06:30:32;;;;;;;5.57;0.60;;;;;;;9.17;92.10;98318.00;6001862;28;20030;-71
2023/03/14 06:33:28;;;;;;;1.73;0.50;;;;;;;9.21;91.65;98304.22;6001614;28;20449;-71
2023/03/14 06:36:23;;;;;;;3.00;0.60;;;;;;;9.52;91.21;98323.06;6002387;28;20030;-71
2023/03/14 06:39:18;;;;;;;1.48;0.47;;;;;;;9.58;90.34;98342.63;6004821;28;20285;-70
2023/03/14 06:42:14;;;;;;;2.70;0.80;;;;;;;9.78;90.45;98334.75;6001130;28;20042;-71
2023/03/14 06:45:10;;;;;;;6.90;0.90;;;;;;;9.83;89.26;98340.25;6006264;28;20053;-70
2023/03/14 06:48:05;;;;;;;1.58;0.40;;;;;;;9.95;89.18;98339.47;6004964;28;20035;-72
2023/03/14 06:51:00;;;;;;;3.75;0.80;;;;;;;10.02;88.96;98344.78;6006394;28;20026;-71
2023/03/14 06:53:56;;;;;;;1.60;1.03;;;;;;;10.02;88.39;98342.13;6001538;28;20406;-70
2023/03/14 06:56:51;;;;;;;1.53;0.40;;;;;;;10.08;86.86;98344.00;6006979;28;20027;-69
2023/03/14 06:59:46;;;;;;;1.30;0.43;;;;;;;10.11;86.99;98356.81;6006784;28;20126;-71
2023/03/14 07:02:42;;;;;;;3.67;1.25;;;;;;;9.92;86.78;98341.72;6006121;28;20460;-72
2023/03/14 07:05:40;;;;;;;2.03;0.80;;;;;;;9.92;87.50;98360.25;6006798;28;20045;-71
2023/03/14 07:08:35;;;;;;;1.80;0.47;;;;;;;9.86;88.12;98366.34;6005972;28;20467;-71
2023/03/14 07:11:31;;;;;;;1.90;0.60;;;;;;;9.83;88.42;98359.59;6006801;28;20106;-71
2023/03/14 07:14:26;;;;;;;1.73;0.50;;;;;;;9.84;87.81;98342.69;6005742;28;20027;-71
2023/03/14 07:17:21;;;;;;;3.53;0.70;;;;;;;10.00;87.97;98357.41;6006032;28;20069;-71
2023/03/14 07:20:17;;;;;;;5.10;0.93;;;;;;;9.95;88.06;98346.59;6006620;28;20047;-71
2023/03/14 07:23:12;;;;;;;3.03;0.90;;;;;;;9.92;87.75;98354.94;6005054;28;20035;-71
2023/03/14 07:26:07;;;;;;;2.67;0.50;;;;;;;9.91;88.59;98358.59;6005415;28;20051;-72
2023/03/14 07:29:03;;;;;;;1.57;0.50;;;;;;;10.03;87.86;98372.88;6006170;28;20031;-71
2023/03/14 07:31:58;;;;;;;1.00;0.80;;;;;;;9.90;88.72;98364.91;6005647;28;20274;-71
2023/03/14 07:34:53;;;;;;;3.00;1.10;;;;;;;9.83;89.88;98377.31;6005174;28;20467;-72
2023/03/14 07:37:49;;;;;;;0.88;0.50;;;;;;;9.82;90.47;98370.38;6005810;28;20041;-71
2023/03/14 07:40:44;;;;;;;1.88;0.57;;;;;;;9.88;90.94;98372.22;6006001;28;20041;-71
2023/03/14 07:43:40;;;;;;;1.43;0.50;;;;;;;9.87;91.27;98368.75;6002482;28;20462;-71
2023/03/14 07:46:35;;;;;;;1.90;0.55;;;;;;;9.90;91.33;98338.44;6006043;28;20043;-71
2023/03/14 07:49:30;;;;;;;2.63;0.53;;;;;;;9.96;92.75;98340.28;6004979;28;20340;-73
2023/03/14 07:52:25;;;;;;;2.87;0.70;;;;;;;9.93;93.57;98340.69;6004838;28;20053;-72
2023/03/14 07:55:21;;;;;;;2.90;0.63;;;;;;;9.97;92.84;98350.66;6004805;28;20030;-71
2023/03/14 07:58:16;;;;;;;2.22;0.63;;;;;;;9.93;93.00;98345.97;6005528;28;20035;-71
2023/03/14 08:01:12;;;;;;;1.88;0.80;;;;;;;10.02;92.71;98339.50;6005792;28;20058;-72
2023/03/14 08:04:08;;;;;;;0.77;0.40;;;;;;;10.02;92.21;98326.25;6004850;28;20027;-71
2023/03/14 08:07:03;;;;;;;2.87;0.60;;;;;;;10.23;91.97;98339.34;6004647;28;20375;-72
2023/03/14 08:09:58;;;;;;;2.03;0.90;;;;;;;10.35;91.16;98335.09;6004728;28;20360;-72
2023/03/14 08:12:55;;;;;;;4.60;0.93;;;;;;;10.26;91.72;98317.75;6004353;28;20275;-72
2023/03/14 08:15:51;;;;;;;1.67;0.60;;;;;;;10.25;91.22;98324.06;6003800;28;20079;-71
2023/03/14 08:18:46;;;;;;;2.70;0.80;;;;;;;10.12;91.83;98343.41;6004575;28;20027;-72
2023/03/14 08:21:41;;;;;;;3.27;0.90;;;;;;;10.18;92.05;98339.13;6003726;28;20038;-71
2023/03/14 08:24:37;;;;;;;3.90;0.80;;;;;;;10.08;91.91;98328.88;6003780;28;20026;-71
2023/03/14 08:27:32;;;;;;;2.73;0.70;;;;;;;10.12;92.25;98332.81;6005001;28;20042;-72
2023/03/14 08:30:27;;;;;;;10.07;1.87;;;;;;;10.09;92.47;98324.41;6004163;28;20035;-71
2023/03/14 08:33:23;;;;;;;3.70;0.80;;;;;;;10.03;93.31;98336.63;6002198;28;20054;-71
2023/03/14 08:36:19;;;;;;;4.57;0.68;;;;;;;10.04;93.50;98342.75;6003680;28;20316;-71
2023/03/14 08:39:15;;;;;;;2.88;0.73;;;;;;;10.02;94.46;98350.91;6003123;28;20134;-72
2023/03/14 08:42:10;;;;;;;2.47;0.90;;;;;;;9.92;95.30;98344.38;6002664;28;20108;-72
2023/03/14 08:45:07;;;;;;;2.40;0.80;;;;;;;9.84;96.78;98353.28;6003341;28;20110;-71
2023/03/14 08:48:03;;;;;;;5.05;0.82;;;;;;;9.73;99.16;98358.34;6003980;28;20522;-71
2023/03/14 08:51:12;;;;;;;3.67;0.70;;;;;;;9.48;100.00;98355.41;6004261;28;20039;-72
2023/03/14 08:54:10;;;;;;;2.85;0.98;;;;;;;9.36;100.00;98370.19;6001323;28;20039;-70
2023/03/14 08:57:05;;;;;;;7.00;1.08;;;;;;;9.20;100.00;98360.75;6003586;28;20491;-71
2023/03/14 09:00:05;;;;;;;2.23;0.67;;;;;;;9.34;100.00;98373.03;6003231;28;20049;-72
2023/03/14 09:03:01;;;;;;;1.48;0.63;;;;;;;9.42;100.00;98370.22;6002335;28;20687;-71
2023/03/14 09:06:02;;;;;;;3.50;0.70;;;;;;;9.43;100.00;98371.06;6003378;28;20043;-72
2023/03/14 09:08:58;;;;;;;4.68;1.55;;;;;;;9.75;100.00;98358.97;6002818;28;20045;-72
2023/03/14 09:11:54;;;;;;;5.22;0.90;;;;;;;9.87;100.00;98362.66;6003235;28;20042;-71
2023/03/14 09:14:49;;;;;;;4.13;1.10;;;;;;;10.10;100.00;98368.44;6003798;28;20050;-72
2023/03/14 09:17:45;;;;;;;4.97;1.10;;;;;;;10.08;100.00;98355.38;6002953;28;20043;-71
2023/03/14 09:20:40;;;;;;;3.90;0.83;;;;;;;10.21;100.00;98365.22;6002868;28;20282;-72
2023/03/14 09:23:35;;;;;;;5.93;0.80;;;;;;;10.13;100.00;98353.00;6002788;28;20027;-72
2023/03/14 09:26:31;;;;;;;3.43;0.77;;;;;;;10.19;100.00;98351.38;6003259;28;20538;-71
2023/03/14 09:29:26;;;;;;;3.58;1.30;;;;;;;10.26;100.00;98354.84;6002363;28;20348;-72
2023/03/14 09:32:21;;;;;;;1.93;0.70;;;;;;;10.56;100.00;98363.22;6001679;28;20486;-72
2023/03/14 09:35:17;;;;;;;2.57;0.80;;;;;;;10.71;100.00;98356.69;6003517;28;20326;-71
2023/03/14 09:38:12;;;;;;;1.70;0.70;;;;;;;10.95;97.95;98351.78;6002977;28;20078;-70
2023/03/14 09:41:26;;;;;;;3.80;0.70;;;;;;;11.08;95.73;98357.06;6002777;28;20051;-71
2023/03/14 09:44:27;;;;;;;2.75;0.65;;;;;;;11.10;94.66;98344.38;6002572;28;20074;-72
2023/03/14 09:47:23;;;;;;;0.63;0.55;;;;;;;11.20;94.36;98323.53;6018089;28;20194;-72
2023/03/14 09:50:19;;;;;;;1.00;0.45;;;;;;;11.42;91.91;98348.78;6018175;28;20030;-72
2023/03/14 09:53:17;;;;;;;0.95;0.45;;;;;;;11.55;89.90;98354.03;6001465;28;20037;-72
2023/03/14 09:56:16;;;;;;;1.00;0.40;;;;;;;11.82;87.32;98339.66;6002395;28;20486;-72
2023/03/14 09:59:13;;;;;;;1.10;0.40;;;;;;;11.80;86.57;98327.63;6000932;28;20047;-72
2023/03/14 10:02:14;;;;;;;1.27;0.30;;;;;;;11.57;86.25;98341.41;6002214;28;20054;-71
2023/03/14 10:05:18;;;;;;;1.27;0.32;;;;;;;11.66;86.41;98350.72;6002396;28;20046;-73
2023/03/14 10:08:13;;;;;;;0.75;0.40;;;;;;;11.45;87.25;98335.09;6001073;28;20034;-72
2023/03/14 10:11:17;;;;;;;0.68;0.30;;;;;;;11.24;88.40;98336.19;6001832;28;20497;-72
2023/03/14 10:14:13;;;;;;;1.80;0.50;;;;;;;11.24;88.52;98330.06;5998987;28;20089;-71
2023/03/14 10:17:12;;;;;;;0.77;0.50;;;;;;;11.32;89.54;98335.16;6000771;28;20079;-72
2023/03/14 10:20:33;;;;;;;0.68;0.30;;;;;;;11.15;90.32;98333.97;6001451;28;20666;-71
2023/03/14 10:23:30;;;;;;;0.20;0.20;;;;;;;11.38;89.77;98344.94;6001635;28;20031;-71
2023/03/14 10:26:33;;;;;;;0.50;0.38;;;;;;;11.69;87.96;98344.22;6008062;28;20093;-71
2023/03/14 10:29:30;;;;;;;0.57;0.30;;;;;;;11.58;88.33;98336.88;5991535;28;20505;-71
2023/03/14 10:32:46;;;;;;;1.30;0.38;;;;;;;11.46;88.59;98344.72;6000813;28;20046;-72
2023/03/14 10:35:41;;;;;;;1.40;0.60;;;;;;;11.53;88.66;98332.22;5994985;28;20054;-72
2023/03/14 10:38:39;;;;;;;0.27;0.20;;;;;;;11.81;88.79;98343.34;6000308;28;20041;-72
2023/03/14 10:41:34;;;;;;;0.98;0.40;;;;;;;12.26;87.99;98337.97;6001808;28;20266;-71
2023/03/14 10:44:30;;;;;;;0.17;0.17;;;;;;;12.49;84.29;98348.84;5990977;28;20101;-71
2023/03/14 10:47:28;;;;;;;1.52;0.60;;;;;;;12.45;83.70;98351.13;6001473;28;20030;-71
2023/03/14 10:50:31;;;;;;;8.30;0.70;;;;;;;12.50;84.22;98343.31;6001247;28;20038;-71
2023/03/14 10:53:26;;;;;;;2.38;0.35;;;;;;;12.82;82.48;98345.91;6000488;28;20096;-71
2023/03/14 10:56:24;;;;;;;2.70;0.13;;;;;;;12.69;81.08;98357.47;6001648;28;20035;-71
2023/03/14 10:59:19;;;;;;;0.68;0.40;;;;;;;12.18;83.67;98348.84;6000990;28;20282;-71
2023/03/14 11:02:32;;;;;;;0.77;0.30;;;;;;;12.32;84.22;98350.41;5998941;28;20066;-71
2023/03/14 11:05:35;;;;;;;0.98;0.28;;;;;;;12.32;84.80;98358.38;5994911;28;20414;-71
2023/03/14 11:08:47;;;;;;;0.35;0.28;;;;;;;12.07;83.93;98333.59;5999484;28;20058;-71
2023/03/14 11:11:45;;;;;;;0.47;0.40;;;;;;;12.09;84.64;98355.47;6000705;28;20035;-71
2023/03/14 11:14:43;;;;;;;1.27;0.60;;;;;;;11.91;84.01;98353.50;6000219;28;20390;-71
2023/03/14 11:17:52;;;;;;;0.63;0.32;;;;;;;11.80;85.08;98356.81;5998251;28;20038;-71
2023/03/14 11:21:22;;;;;;;0.98;0.80;;;;;;;11.77;85.99;98358.06;5999314;28;20030;-71
2023/03/14 11:24:31;;;;;;;2.20;0.30;;;;;;;11.68;84.96;98369.13;5998290;28;20456;-71
2023/03/14 11:27:57;;;;;;;1.67;0.70;;;;;;;11.59;84.41;98352.63;6005394;28;20034;-71
2023/03/14 11:30:54;;;;;;;0.68;0.43;;;;;;;11.64;83.66;98347.47;6021148;28;20563;-71
2023/03/14 11:34:06;;;;;;;0.90;0.50;;;;;;;11.71;84.50;98364.22;6005495;28;20042;-72
2023/03/14 11:37:05;;;;;;;1.80;0.85;;;;;;;11.58;85.92;98358.94;6019745;28;20038;-71
2023/03/14 11:40:13;;;;;;;8.85;3.33;;;;;;;11.29;89.75;98359.44;6005301;28;20401;-72
2023/03/14 11:43:08;;;;;;;2.97;1.20;;;;;;;11.17;92.06;98366.44;6000213;28;20122;-72
2023/03/14 11:46:08;;;;;;;2.35;1.25;;;;;;;11.03;95.19;98367.47;6003642;28;20548;-71
2023/03/14 11:49:13;;;;;;;4.97;2.40;;;;;;;10.86;96.95;98363.59;6005323;28;20041;-70
2023/03/14 11:52:13;;;;;;;1.58;0.80;;;;;;;10.86;97.63;98348.53;6003963;28;20042;-72
2023/03/14 11:55:28;;;;;;;3.97;2.10;;;;;;;11.07;96.71;98405.81;6005420;28;20066;-72
2023/03/14 11:58:26;;;;;;;1.27;0.28;;;;;;;8.74;92.39;98470.59;6019403;28;20134;-71
2023/03/14 12:01:24;;;;;;;1.40;0.45;;;;;;;7.23;98.81;98494.28;5995407;28;20043;-70
2023/03/14 12:04:49;;;;;;;1.67;0.50;;;;;;;6.67;100.00;98480.59;5991610;28;20093;-70
2023/03/14 12:08:09;;;;;;;1.35;0.60;;;;;;;6.37;100.00;98502.53;5988444;28;20050;-70
2023/03/14 12:11:13;;;;;;;0.98;0.32;;;;;;;6.35;100.00;98526.41;6004017;28;20379;-71
2023/03/14 12:14:24;;;;;;;0.77;0.32;;;;;;;6.19;100.00;98541.44;6001751;28;20426;-70
2023/03/14 12:17:41;;;;;;;1.65;0.43;;;;;;;6.08;100.00;98555.81;6005117;28;20034;-70
2023/03/14 12:20:38;;;;;;;0.35;0.20;;;;;;;6.07;100.00;98577.00;6005138;28;20043;-70
2023/03/14 12:23:42;;;;;;;1.02;0.40;;;;;;;5.97;100.00;98559.63;6002955;28;20030;-70
2023/03/14 12:26:50;;;;;;;0.57;0.38;;;;;;;5.96;100.00;98597.44;6004047;28;20126;-71
2023/03/14 12:29:59;;;;;;;2.50;0.40;;;;;;;5.73;100.00;98609.63;6004403;28;20045;-70
2023/03/14 12:33:10;;;;;;;0.40;0.20;;;;;;;5.49;100.00;98629.88;6003634;28;20050;-71
2023/03/14 12:36:15;;;;;;;1.73;0.30;;;;;;;5.07;100.00;98636.09;6003389;28;20061;-71
2023/03/14 12:39:25;;;;;;;1.77;0.20;;;;;;;5.00;100.00;98677.09;6003810;28;20035;-72
2023/03/14 12:42:29;;;;;;;0.75;0.45;;;;;;;4.82;100.00;98713.97;6003237;28;20463;-71
2023/03/14 12:46:09;;;;;;;0.13;0.13;;;;;;;4.48;100.00;98717.63;5992470;28;20039;-70
2023/03/14 12:49:05;;;;;;;;;;;;;;;4.48;100.00;98717.63;6004426;28;20410;-70
2023/03/14 12:52:01;;;;;;;1.08;0.60;;;;;;;4.32;100.00;98730.66;6002391;28;19960;-70
2023/03/14 12:55:20;;;;;;;0.75;0.43;;;;;;;4.20;100.00;98738.78;6003867;28;20504;-69
2023/03/14 12:58:25;;;;;;;0.77;0.30;;;;;;;4.17;100.00;98754.81;6003311;28;20035;-70
2023/03/14 13:01:21;;;;;;;0.68;0.20;;;;;;;4.18;100.00;98781.88;5983382;28;20039;-70
2023/03/14 13:04:16;;;;;;;0.23;0.10;;;;;;;3.99;100.00;98776.81;6003701;28;20360;-70
2023/03/14 13:07:14;;;;;;;0.93;0.30;;;;;;;4.02;100.00;98814.03;6003591;28;20073;-70
2023/03/14 13:10:09;;;;;;;0.08;0.08;;;;;;;3.84;100.00;98825.50;6001831;28;20114;-70
2023/03/14 13:13:23;;;;;;;0.32;0.20;;;;;;;3.70;100.00;98833.88;6003082;28;20050;-71
2023/03/14 13:16:20;;;;;;;0.17;0.10;;;;;;;3.55;100.00;98837.03;6003464;28;20047;-70
2023/03/14 13:19:19;;;;;;;0.47;0.10;;;;;;;3.64;100.00;98876.41;6003213;28;20042;-71
2023/03/14 13:22:26;;;;;;;0.40;0.15;;;;;;;3.53;100.00;98875.63;6000334;28;20046;-70
2023/03/14 13:25:22;;;;;;;1.95;0.30;;;;;;;3.54;100.00;98898.25;6002157;28;20029;-70
2023/03/14 13:28:18;;;;;;;2.25;0.45;;;;;;;3.43;100.00;98906.31;6001573;28;20093;-70
2023/03/14 13:31:24;;;;;;;2.75;0.50;;;;;;;3.34;100.00;98895.88;6002889;28;20034;-69
2023/03/14 13:34:19;;;;;;;1.63;0.50;;;;;;;3.48;100.00;98914.56;6002572;28;20034;-71
2023/03/14 13:37:20;;;;;;;5.85;0.70;;;;;;;3.35;100.00;98923.72;6003089;28;20053;-70
2023/03/14 13:40:26;;;;;;;4.63;0.60;;;;;;;3.43;100.00;98958.69;6003332;28;20042;-71
2023/03/14 13:43:31;;;;;;;2.53;0.70;;;;;;;3.35;100.00;98949.91;6001630;28;20487;-70
2023/03/14 13:46:26;;;;;;;2.33;0.60;;;;;;;3.39;100.00;98972.25;6002233;28;20482;-72
2023/03/14 13:49:22;;;;;;;2.03;0.60;;;;;;;3.52;100.00;98972.72;6001852;28;20043;-72
2023/03/14 13:52:46;;;;;;;2.50;0.90;;;;;;;3.73;100.00;98988.22;6000979;28;20390;-71
2023/03/14 13:55:41;;;;;;;2.95;0.60;;;;;;;3.75;100.00;98988.91;6002289;28;20043;-71
2023/03/14 13:58:37;;;;;;;6.57;0.60;;;;;;;3.88;100.00;99020.84;6002748;28;20045;-72
2023/03/14 14:01:35;;;;;;;2.15;0.45;;;;;;;3.93;100.00;99024.69;6001707;28;20035;-72
2023/03/14 14:04:32;;;;;;;4.00;0.93;;;;;;;4.01;100.00;99051.00;5986167;28;20114;-71